sensor_id;sensor_type;location;lat;lon;timestamp;pressure;altitude;pressure_sealevel;temperature;humidity
24486;BME280;13449;49.374;8.584;2023-01-29T00:01:30;101858.63;;;0.43;70.97
24486;BME280;13449;49.374;8.584;2023-01-29T00:03:59;101856.88;;;0.42;71.23
24486;BME280;13449;49.374;8.584;2023-01-29T00:06:28;101870.41;;;0.40;70.48
24486;BME280;13449;49.374;8.584;2023-01-29T00:08:54;101866.84;;;0.40;70.26
24486;BME280;13449;49.374;8.584;2023-01-29T00:11:21;101869.41;;;0.41;69.84
24486;BME280;13449;49.374;8.584;2023-01-29T00:13:49;101854.38;;;0.39;70.90
24486;BME280;13449;49.374;8.584;2023-01-29T00:16:16;101857.06;;;0.39;71.27
24486;BME280;13449;49.374;8.584;2023-01-29T00:18:45;101860.84;;;0.35;70.73
24486;BME280;13449;49.374;8.584;2023-01-29T00:21:16;101871.34;;;0.39;70.64
24486;BME280;13449;49.374;8.584;2023-01-29T00:23:47;101852.81;;;0.35;71.22
24486;BME280;13449;49.374;8.584;2023-01-29T00:26:15;101854.72;;;0.33;70.23
24486;BME280;13449;49.374;8.584;2023-01-29T00:28:44;101859.41;;;0.29;70.38
24486;BME280;13449;49.374;8.584;2023-01-29T00:31:17;101845.13;;;0.29;70.42
24486;BME280;13449;49.374;8.584;2023-01-29T00:33:44;101840.72;;;0.28;71.10
24486;BME280;13449;49.374;8.584;2023-01-29T00:36:16;101849.69;;;0.27;70.61
24486;BME280;13449;49.374;8.584;2023-01-29T00:39:02;101871.78;;;0.32;69.59
24486;BME280;13449;49.374;8.584;2023-01-29T00:41:39;101868.22;;;0.31;70.10
24486;BME280;13449;49.374;8.584;2023-01-29T00:44:26;101856.88;;;0.26;70.96
24486;BME280;13449;49.374;8.584;2023-01-29T00:47:11;101860.44;;;0.27;70.61
24486;BME280;13449;49.374;8.584;2023-01-29T00:49:59;101858.53;;;0.29;70.73
24486;BME280;13449;49.374;8.584;2023-01-29T00:52:28;101853.34;;;0.26;70.61
24486;BME280;13449;49.374;8.584;2023-01-29T00:54:57;101857.84;;;0.25;71.09
24486;BME280;13449;49.374;8.584;2023-01-29T00:57:26;101857.84;;;0.25;70.99
24486;BME280;13449;49.374;8.584;2023-01-29T00:59:55;101859.47;;;0.28;70.70
24486;BME280;13449;49.374;8.584;2023-01-29T01:02:22;101862.34;;;0.25;71.03
24486;BME280;13449;49.374;8.584;2023-01-29T01:05:09;101860.72;;;0.22;71.15
24486;BME280;13449;49.374;8.584;2023-01-29T01:07:44;101857.22;;;0.20;71.62
24486;BME280;13449;49.374;8.584;2023-01-29T01:10:17;101865.97;;;0.24;71.33
24486;BME280;13449;49.374;8.584;2023-01-29T01:12:54;101857.91;;;0.24;71.84
24486;BME280;13449;49.374;8.584;2023-01-29T01:15:24;101858.88;;;0.23;71.77
24486;BME280;13449;49.374;8.584;2023-01-29T01:17:53;101861.66;;;0.21;71.27
24486;BME280;13449;49.374;8.584;2023-01-29T01:20:20;101873.31;;;0.20;71.70
24486;BME280;13449;49.374;8.584;2023-01-29T01:22:47;101880.50;;;0.20;70.94
24486;BME280;13449;49.374;8.584;2023-01-29T01:25:13;101872.56;;;0.18;71.68
24486;BME280;13449;49.374;8.584;2023-01-29T01:27:40;101861.84;;;0.18;70.98
24486;BME280;13449;49.374;8.584;2023-01-29T01:30:10;101838.47;;;0.20;72.49
24486;BME280;13449;49.374;8.584;2023-01-29T01:32:40;101870.81;;;0.17;71.41
24486;BME280;13449;49.374;8.584;2023-01-29T01:35:08;101872.69;;;0.15;70.91
24486;BME280;13449;49.374;8.584;2023-01-29T01:37:35;101871.94;;;0.13;70.90
24486;BME280;13449;49.374;8.584;2023-01-29T01:40:12;101865.81;;;0.11;71.38
24486;BME280;13449;49.374;8.584;2023-01-29T01:42:46;101864.06;;;0.10;70.89
24486;BME280;13449;49.374;8.584;2023-01-29T01:48:25;101859.03;;;0.04;71.40
24486;BME280;13449;49.374;8.584;2023-01-29T01:50:56;101854.72;;;0.02;71.45
24486;BME280;13449;49.374;8.584;2023-01-29T01:53:36;101855.56;;;0.02;71.82
24486;BME280;13449;49.374;8.584;2023-01-29T01:56:08;101866.13;;;0.05;71.04
24486;BME280;13449;49.374;8.584;2023-01-29T01:58:40;101861.63;;;0.06;71.32
24486;BME280;13449;49.374;8.584;2023-01-29T02:01:08;101869.75;;;0.04;70.78
24486;BME280;13449;49.374;8.584;2023-01-29T02:03:41;101861.56;;;0.07;71.34
24486;BME280;13449;49.374;8.584;2023-01-29T02:06:29;101860.50;;;0.10;71.18
24486;BME280;13449;49.374;8.584;2023-01-29T02:09:35;101860.59;;;0.08;71.70
24486;BME280;13449;49.374;8.584;2023-01-29T02:12:07;101891.56;;;0.14;69.46
24486;BME280;13449;49.374;8.584;2023-01-29T02:14:36;101888.78;;;0.15;69.05
24486;BME280;13449;49.374;8.584;2023-01-29T02:17:07;101881.78;;;0.13;69.28
24486;BME280;13449;49.374;8.584;2023-01-29T02:25:27;101861.88;;;0.01;70.82
24486;BME280;13449;49.374;8.584;2023-01-29T02:36:11;101837.47;;;-0.10;71.26
24486;BME280;13449;49.374;8.584;2023-01-29T02:38:49;101830.50;;;-0.13;71.08
24486;BME280;13449;49.374;8.584;2023-01-29T02:41:48;101822.94;;;-0.22;71.86
24486;BME280;13449;49.374;8.584;2023-01-29T02:44:28;101807.22;;;-0.28;73.17
24486;BME280;13449;49.374;8.584;2023-01-29T02:50:31;101794.81;;;-0.46;73.59
24486;BME280;13449;49.374;8.584;2023-01-29T02:53:31;101799.28;;;-0.62;73.16
24486;BME280;13449;49.374;8.584;2023-01-29T02:56:23;101797.94;;;-0.71;74.30
24486;BME280;13449;49.374;8.584;2023-01-29T02:59:01;101795.25;;;-0.86;74.69
24486;BME280;13449;49.374;8.584;2023-01-29T03:01:47;101792.41;;;-1.01;74.63
24486;BME280;13449;49.374;8.584;2023-01-29T03:04:21;101792.72;;;-1.07;75.89
24486;BME280;13449;49.374;8.584;2023-01-29T03:07:14;101796.84;;;-1.17;76.34
24486;BME280;13449;49.374;8.584;2023-01-29T03:10:02;101804.69;;;-1.14;75.87
24486;BME280;13449;49.374;8.584;2023-01-29T03:12:35;101798.72;;;-1.19;76.42
24486;BME280;13449;49.374;8.584;2023-01-29T03:15:12;101806.59;;;-1.33;75.83
24486;BME280;13449;49.374;8.584;2023-01-29T03:20:37;101800.09;;;-1.46;75.90
24486;BME280;13449;49.374;8.584;2023-01-29T03:23:20;101812.22;;;-1.56;76.26
24486;BME280;13449;49.374;8.584;2023-01-29T03:25:54;101804.50;;;-1.62;76.93
24486;BME280;13449;49.374;8.584;2023-01-29T03:28:40;101805.66;;;-1.68;77.15
24486;BME280;13449;49.374;8.584;2023-01-29T03:31:28;101811.16;;;-1.71;77.67
24486;BME280;13449;49.374;8.584;2023-01-29T03:34:20;101816.03;;;-1.79;78.32
24486;BME280;13449;49.374;8.584;2023-01-29T03:36:56;101815.03;;;-1.76;79.69
24486;BME280;13449;49.374;8.584;2023-01-29T03:39:27;101829.16;;;-1.74;78.28
24486;BME280;13449;49.374;8.584;2023-01-29T03:42:08;101826.91;;;-1.83;79.02
24486;BME280;13449;49.374;8.584;2023-01-29T03:47:35;101831.13;;;-1.78;79.10
24486;BME280;13449;49.374;8.584;2023-01-29T03:50:08;101832.88;;;-1.77;78.93
24486;BME280;13449;49.374;8.584;2023-01-29T03:53:01;101832.44;;;-1.86;79.01
24486;BME280;13449;49.374;8.584;2023-01-29T03:55:41;101832.28;;;-1.83;79.90
24486;BME280;13449;49.374;8.584;2023-01-29T03:58:28;101827.78;;;-1.83;79.97
24486;BME280;13449;49.374;8.584;2023-01-29T04:01:00;101826.09;;;-1.84;79.54
24486;BME280;13449;49.374;8.584;2023-01-29T04:03:37;101829.34;;;-1.96;80.05
24486;BME280;13449;49.374;8.584;2023-01-29T04:11:32;101827.91;;;-2.03;81.01
24486;BME280;13449;49.374;8.584;2023-01-29T04:14:01;101830.56;;;-2.03;81.29
24486;BME280;13449;49.374;8.584;2023-01-29T04:16:32;101835.56;;;-1.96;82.52
24486;BME280;13449;49.374;8.584;2023-01-29T04:19:00;101844.84;;;-1.85;81.91
24486;BME280;13449;49.374;8.584;2023-01-29T04:21:27;101840.72;;;-1.74;81.41
24486;BME280;13449;49.374;8.584;2023-01-29T04:23:54;101844.50;;;-1.78;81.10
24486;BME280;13449;49.374;8.584;2023-01-29T04:37:35;101837.31;;;-1.59;80.96
24486;BME280;13449;49.374;8.584;2023-01-29T04:40:22;101826.66;;;-1.60;81.03
24486;BME280;13449;49.374;8.584;2023-01-29T04:43:04;101827.88;;;-1.49;80.64
24486;BME280;13449;49.374;8.584;2023-01-29T04:54:11;101833.28;;;-1.31;80.07
24486;BME280;13449;49.374;8.584;2023-01-29T04:56:52;101826.94;;;-1.30;79.93
24486;BME280;13449;49.374;8.584;2023-01-29T04:59:29;101818.16;;;-1.32;79.64
24486;BME280;13449;49.374;8.584;2023-01-29T05:02:05;101815.16;;;-1.26;79.63
24486;BME280;13449;49.374;8.584;2023-01-29T05:04:34;101807.50;;;-1.34;80.24
24486;BME280;13449;49.374;8.584;2023-01-29T05:07:07;101799.97;;;-1.43;80.40
24486;BME280;13449;49.374;8.584;2023-01-29T05:09:38;101788.63;;;-1.48;80.03
24486;BME280;13449;49.374;8.584;2023-01-29T05:12:33;101787.38;;;-1.58;80.86
24486;BME280;13449;49.374;8.584;2023-01-29T05:15:03;101799.31;;;-1.65;81.53
24486;BME280;13449;49.374;8.584;2023-01-29T05:17:35;101794.09;;;-1.68;81.24
24486;BME280;13449;49.374;8.584;2023-01-29T05:20:07;101783.00;;;-1.78;81.49
24486;BME280;13449;49.374;8.584;2023-01-29T05:22:36;101784.41;;;-1.88;81.35
24486;BME280;13449;49.374;8.584;2023-01-29T05:25:20;101791.84;;;-1.95;82.80
24486;BME280;13449;49.374;8.584;2023-01-29T05:27:49;101799.28;;;-2.01;82.26
24486;BME280;13449;49.374;8.584;2023-01-29T05:30:36;101801.41;;;-2.08;82.50
24486;BME280;13449;49.374;8.584;2023-01-29T05:33:10;101799.03;;;-2.14;83.08
24486;BME280;13449;49.374;8.584;2023-01-29T05:35:38;101794.63;;;-2.15;83.30
24486;BME280;13449;49.374;8.584;2023-01-29T05:38:07;101808.91;;;-2.16;83.72
24486;BME280;13449;49.374;8.584;2023-01-29T05:40:35;101818.34;;;-2.09;84.07
24486;BME280;13449;49.374;8.584;2023-01-29T05:43:02;101822.06;;;-2.11;83.47
24486;BME280;13449;49.374;8.584;2023-01-29T05:45:31;101825.34;;;-2.06;84.32
24486;BME280;13449;49.374;8.584;2023-01-29T05:47:58;101819.72;;;-2.00;83.95
24486;BME280;13449;49.374;8.584;2023-01-29T05:50:26;101820.31;;;-1.93;83.96
24486;BME280;13449;49.374;8.584;2023-01-29T05:53:01;101828.25;;;-1.92;84.34
24486;BME280;13449;49.374;8.584;2023-01-29T05:55:31;101820.97;;;-1.88;84.08
24486;BME280;13449;49.374;8.584;2023-01-29T05:57:58;101814.44;;;-1.83;85.17
24486;BME280;13449;49.374;8.584;2023-01-29T06:00:31;101827.72;;;-1.81;83.98
24486;BME280;13449;49.374;8.584;2023-01-29T06:03:08;101826.50;;;-1.74;83.75
24486;BME280;13449;49.374;8.584;2023-01-29T06:05:38;101821.00;;;-1.71;84.12
24486;BME280;13449;49.374;8.584;2023-01-29T06:08:06;101819.91;;;-1.67;83.77
24486;BME280;13449;49.374;8.584;2023-01-29T06:10:36;101822.56;;;-1.67;83.09
24486;BME280;13449;49.374;8.584;2023-01-29T06:13:04;101817.94;;;-1.64;82.79
24486;BME280;13449;49.374;8.584;2023-01-29T06:15:31;101805.22;;;-1.59;82.30
24486;BME280;13449;49.374;8.584;2023-01-29T06:17:57;101807.97;;;-1.60;82.42
24486;BME280;13449;49.374;8.584;2023-01-29T06:20:25;101805.28;;;-1.60;81.87
24486;BME280;13449;49.374;8.584;2023-01-29T06:22:52;101806.09;;;-1.58;82.06
24486;BME280;13449;49.374;8.584;2023-01-29T06:25:21;101821.66;;;-1.49;81.59
24486;BME280;13449;49.374;8.584;2023-01-29T06:27:51;101820.94;;;-1.53;82.04
24486;BME280;13449;49.374;8.584;2023-01-29T06:30:17;101817.28;;;-1.50;81.50
24486;BME280;13449;49.374;8.584;2023-01-29T06:32:44;101818.28;;;-1.53;83.09
24486;BME280;13449;49.374;8.584;2023-01-29T06:35:11;101827.97;;;-1.50;81.67
24486;BME280;13449;49.374;8.584;2023-01-29T06:37:37;101829.47;;;-1.44;81.73
24486;BME280;13449;49.374;8.584;2023-01-29T06:40:07;101847.81;;;-1.37;80.48
24486;BME280;13449;49.374;8.584;2023-01-29T06:42:34;101841.34;;;-1.33;80.71
24486;BME280;13449;49.374;8.584;2023-01-29T06:45:06;101838.63;;;-1.31;80.83
24486;BME280;13449;49.374;8.584;2023-01-29T06:47:33;101833.16;;;-1.30;80.86
24486;BME280;13449;49.374;8.584;2023-01-29T06:50:06;101822.19;;;-1.24;80.95
24486;BME280;13449;49.374;8.584;2023-01-29T06:52:40;101828.47;;;-1.25;80.20
24486;BME280;13449;49.374;8.584;2023-01-29T06:55:07;101826.66;;;-1.24;79.91
24486;BME280;13449;49.374;8.584;2023-01-29T06:57:34;101818.69;;;-1.26;80.19
24486;BME280;13449;49.374;8.584;2023-01-29T07:00:00;101826.00;;;-1.29;79.92
24486;BME280;13449;49.374;8.584;2023-01-29T07:02:30;101826.09;;;-1.31;80.05
24486;BME280;13449;49.374;8.584;2023-01-29T07:05:00;101816.25;;;-1.30;80.07
24486;BME280;13449;49.374;8.584;2023-01-29T07:07:26;101820.72;;;-1.31;81.09
24486;BME280;13449;49.374;8.584;2023-01-29T07:09:55;101826.34;;;-1.35;79.55
24486;BME280;13449;49.374;8.584;2023-01-29T07:12:22;101820.34;;;-1.40;80.01
24486;BME280;13449;49.374;8.584;2023-01-29T07:14:58;101827.59;;;-1.42;80.75
24486;BME280;13449;49.374;8.584;2023-01-29T07:17:26;101829.69;;;-1.49;81.22
24486;BME280;13449;49.374;8.584;2023-01-29T07:19:55;101834.88;;;-1.46;81.18
24486;BME280;13449;49.374;8.584;2023-01-29T07:22:22;101837.25;;;-1.40;80.68
24486;BME280;13449;49.374;8.584;2023-01-29T07:24:49;101836.06;;;-1.34;80.76
24486;BME280;13449;49.374;8.584;2023-01-29T07:27:24;101830.00;;;-1.38;80.59
24486;BME280;13449;49.374;8.584;2023-01-29T07:29:51;101830.09;;;-1.39;80.89
24486;BME280;13449;49.374;8.584;2023-01-29T07:32:17;101822.97;;;-1.39;81.56
24486;BME280;13449;49.374;8.584;2023-01-29T07:34:44;101833.78;;;-1.42;80.95
24486;BME280;13449;49.374;8.584;2023-01-29T07:37:11;101834.88;;;-1.46;80.94
24486;BME280;13449;49.374;8.584;2023-01-29T07:39:37;101833.31;;;-1.50;81.95
24486;BME280;13449;49.374;8.584;2023-01-29T07:42:07;101840.59;;;-1.54;81.49
24486;BME280;13449;49.374;8.584;2023-01-29T07:44:37;101833.69;;;-1.58;82.07
24486;BME280;13449;49.374;8.584;2023-01-29T07:47:12;101843.66;;;-1.61;82.03
24486;BME280;13449;49.374;8.584;2023-01-29T07:49:42;101840.13;;;-1.62;82.29
24486;BME280;13449;49.374;8.584;2023-01-29T07:52:09;101840.25;;;-1.65;82.11
24486;BME280;13449;49.374;8.584;2023-01-29T07:54:42;101840.41;;;-1.68;82.20
24486;BME280;13449;49.374;8.584;2023-01-29T07:57:10;101844.63;;;-1.62;81.75
24486;BME280;13449;49.374;8.584;2023-01-29T07:59:36;101848.53;;;-1.69;82.00
24486;BME280;13449;49.374;8.584;2023-01-29T08:02:10;101858.41;;;-1.71;82.44
24486;BME280;13449;49.374;8.584;2023-01-29T08:04:39;101864.06;;;-1.77;82.70
24486;BME280;13449;49.374;8.584;2023-01-29T08:07:13;101861.56;;;-1.80;82.51
24486;BME280;13449;49.374;8.584;2023-01-29T08:09:47;101864.84;;;-1.75;82.92
24486;BME280;13449;49.374;8.584;2023-01-29T08:15:12;101867.53;;;-1.75;83.29
24486;BME280;13449;49.374;8.584;2023-01-29T08:17:42;101876.41;;;-1.75;82.96
24486;BME280;13449;49.374;8.584;2023-01-29T08:20:26;101883.13;;;-1.66;83.49
24486;BME280;13449;49.374;8.584;2023-01-29T08:23:07;101884.56;;;-1.59;82.57
24486;BME280;13449;49.374;8.584;2023-01-29T08:25:38;101880.50;;;-1.49;81.91
24486;BME280;13449;49.374;8.584;2023-01-29T08:28:07;101874.22;;;-1.48;82.54
24486;BME280;13449;49.374;8.584;2023-01-29T08:30:37;101866.91;;;-1.44;82.49
24486;BME280;13449;49.374;8.584;2023-01-29T08:33:04;101862.09;;;-1.38;82.09
24486;BME280;13449;49.374;8.584;2023-01-29T08:35:35;101862.38;;;-1.25;81.99
24486;BME280;13449;49.374;8.584;2023-01-29T08:38:04;101872.00;;;-1.04;79.53
24486;BME280;13449;49.374;8.584;2023-01-29T08:40:34;101864.53;;;-0.98;80.03
24486;BME280;13449;49.374;8.584;2023-01-29T08:43:09;101855.38;;;-0.93;81.03
24486;BME280;13449;49.374;8.584;2023-01-29T08:45:38;101870.19;;;-0.86;80.18
24486;BME280;13449;49.374;8.584;2023-01-29T08:48:13;101892.53;;;-0.70;79.04
24486;BME280;13449;49.374;8.584;2023-01-29T08:50:40;101888.94;;;-0.69;78.73
24486;BME280;13449;49.374;8.584;2023-01-29T08:53:14;101902.97;;;-0.64;78.54
24486;BME280;13449;49.374;8.584;2023-01-29T08:55:49;101924.75;;;-0.55;76.65
24486;BME280;13449;49.374;8.584;2023-01-29T08:58:16;101933.03;;;-0.42;76.29
24486;BME280;13449;49.374;8.584;2023-01-29T09:00:43;101937.19;;;-0.36;75.66
24486;BME280;13449;49.374;8.584;2023-01-29T09:03:13;101935.59;;;-0.23;75.44
24486;BME280;13449;49.374;8.584;2023-01-29T09:05:43;101920.22;;;-0.20;75.41
24486;BME280;13449;49.374;8.584;2023-01-29T09:08:12;101916.09;;;-0.10;74.06
24486;BME280;13449;49.374;8.584;2023-01-29T09:10:39;101871.16;;;-0.05;76.09
24486;BME280;13449;49.374;8.584;2023-01-29T09:13:09;101867.75;;;0.08;75.01
24486;BME280;13449;49.374;8.584;2023-01-29T09:15:37;101872.44;;;0.20;74.00
24486;BME280;13449;49.374;8.584;2023-01-29T09:18:04;101837.50;;;0.37;74.58
24486;BME280;13449;49.374;8.584;2023-01-29T09:20:31;101848.06;;;0.56;73.99
24486;BME280;13449;49.374;8.584;2023-01-29T09:23:06;101850.19;;;0.65;73.64
24486;BME280;13449;49.374;8.584;2023-01-29T09:25:37;101872.63;;;0.64;70.96
24486;BME280;13449;49.374;8.584;2023-01-29T09:28:04;101840.66;;;0.75;73.06
24486;BME280;13449;49.374;8.584;2023-01-29T09:30:31;101857.44;;;0.78;72.29
24486;BME280;13449;49.374;8.584;2023-01-29T09:32:59;101854.03;;;0.90;72.52
24486;BME280;13449;49.374;8.584;2023-01-29T09:35:28;101855.81;;;1.06;72.95
24486;BME280;13449;49.374;8.584;2023-01-29T09:37:55;101899.97;;;0.86;68.97
24486;BME280;13449;49.374;8.584;2023-01-29T09:43:09;101890.78;;;1.20;70.00
24486;BME280;13449;49.374;8.584;2023-01-29T09:45:49;101930.09;;;1.21;67.89
24486;BME280;13449;49.374;8.584;2023-01-29T09:48:18;101894.66;;;1.44;70.70
24486;BME280;13449;49.374;8.584;2023-01-29T09:50:50;101904.53;;;1.43;69.59
24486;BME280;13449;49.374;8.584;2023-01-29T09:53:25;101938.78;;;1.40;66.93
24486;BME280;13449;49.374;8.584;2023-01-29T09:56:00;101919.94;;;1.56;68.76
24486;BME280;13449;49.374;8.584;2023-01-29T09:58:39;101952.94;;;1.28;66.80
24486;BME280;13449;49.374;8.584;2023-01-29T10:01:32;101919.63;;;1.46;68.46
24486;BME280;13449;49.374;8.584;2023-01-29T10:06:56;101931.91;;;1.50;68.46
24486;BME280;13449;49.374;8.584;2023-01-29T10:23:35;101972.28;;;1.64;65.93
24486;BME280;13449;49.374;8.584;2023-01-29T10:26:03;101963.16;;;1.67;66.52
24486;BME280;13449;49.374;8.584;2023-01-29T10:28:44;101979.59;;;1.46;65.70
24486;BME280;13449;49.374;8.584;2023-01-29T10:34:02;101916.38;;;1.69;67.53
24486;BME280;13449;49.374;8.584;2023-01-29T10:36:37;101913.81;;;1.68;67.03
24486;BME280;13449;49.374;8.584;2023-01-29T10:42:08;101910.38;;;1.80;67.69
24486;BME280;13449;49.374;8.584;2023-01-29T10:44:59;101936.09;;;1.70;65.37
24486;BME280;13449;49.374;8.584;2023-01-29T10:48:02;101884.31;;;1.80;67.74
24486;BME280;13449;49.374;8.584;2023-01-29T10:50:49;101907.09;;;1.75;66.55
24486;BME280;13449;49.374;8.584;2023-01-29T10:58:51;101901.31;;;1.67;66.13
24486;BME280;13449;49.374;8.584;2023-01-29T11:01:19;101904.97;;;1.66;65.66
24486;BME280;13449;49.374;8.584;2023-01-29T11:03:55;101890.75;;;1.64;66.12
24486;BME280;13449;49.374;8.584;2023-01-29T11:06:25;101881.72;;;1.51;66.23
24486;BME280;13449;49.374;8.584;2023-01-29T11:09:28;101879.69;;;1.54;65.85
24486;BME280;13449;49.374;8.584;2023-01-29T11:14:52;101868.66;;;1.44;66.00
24486;BME280;13449;49.374;8.584;2023-01-29T11:17:22;101871.16;;;1.48;65.88
24486;BME280;13449;49.374;8.584;2023-01-29T11:19:51;101865.78;;;1.62;66.06
24486;BME280;13449;49.374;8.584;2023-01-29T11:22:28;101859.19;;;1.67;65.77
24486;BME280;13449;49.374;8.584;2023-01-29T11:25:20;101830.88;;;1.76;66.89
24486;BME280;13449;49.374;8.584;2023-01-29T11:27:51;101857.09;;;1.72;64.89
24486;BME280;13449;49.374;8.584;2023-01-29T11:30:22;101848.22;;;1.70;66.20
24486;BME280;13449;49.374;8.584;2023-01-29T11:33:06;101857.63;;;1.77;64.87
24486;BME280;13449;49.374;8.584;2023-01-29T11:35:34;101834.59;;;1.87;66.36
24486;BME280;13449;49.374;8.584;2023-01-29T11:38:14;101813.06;;;2.02;67.79
24486;BME280;13449;49.374;8.584;2023-01-29T11:40:43;101812.28;;;2.00;67.14
24486;BME280;13449;49.374;8.584;2023-01-29T11:43:27;101837.38;;;1.86;65.49
24486;BME280;13449;49.374;8.584;2023-01-29T11:46:21;101808.88;;;1.83;66.56
24486;BME280;13449;49.374;8.584;2023-01-29T11:48:49;101797.13;;;1.84;66.69
24486;BME280;13449;49.374;8.584;2023-01-29T11:51:28;101785.91;;;1.78;66.86
24486;BME280;13449;49.374;8.584;2023-01-29T11:54:04;101776.78;;;1.80;67.11
24486;BME280;13449;49.374;8.584;2023-01-29T11:56:40;101784.66;;;1.83;65.87
24486;BME280;13449;49.374;8.584;2023-01-29T12:01:51;101767.06;;;1.92;67.04
24486;BME280;13449;49.374;8.584;2023-01-29T12:04:21;101769.84;;;1.76;65.77
24486;BME280;13449;49.374;8.584;2023-01-29T12:06:52;101760.69;;;1.52;66.45
24486;BME280;13449;49.374;8.584;2023-01-29T12:09:22;101746.06;;;1.70;66.90
24486;BME280;13449;49.374;8.584;2023-01-29T12:11:49;101752.56;;;1.80;66.37
24486;BME280;13449;49.374;8.584;2023-01-29T12:17:12;101739.13;;;1.80;66.29
24486;BME280;13449;49.374;8.584;2023-01-29T12:19:44;101711.00;;;1.86;67.66
24486;BME280;13449;49.374;8.584;2023-01-29T12:27:27;101745.38;;;1.81;65.09
24486;BME280;13449;49.374;8.584;2023-01-29T12:32:59;101698.38;;;2.01;67.71
24486;BME280;13449;49.374;8.584;2023-01-29T12:35:32;101704.09;;;2.09;67.28
24486;BME280;13449;49.374;8.584;2023-01-29T12:38:09;101693.88;;;2.14;67.00
24486;BME280;13449;49.374;8.584;2023-01-29T12:40:45;101687.31;;;2.18;67.78
24486;BME280;13449;49.374;8.584;2023-01-29T12:43:15;101684.25;;;2.24;66.81
24486;BME280;13449;49.374;8.584;2023-01-29T12:45:43;101695.53;;;2.16;66.40
24486;BME280;13449;49.374;8.584;2023-01-29T12:48:20;101710.13;;;2.12;65.29
24486;BME280;13449;49.374;8.584;2023-01-29T12:50:50;101725.69;;;1.94;65.05
24486;BME280;13449;49.374;8.584;2023-01-29T12:53:27;101715.06;;;2.06;66.16
24486;BME280;13449;49.374;8.584;2023-01-29T12:56:00;101724.97;;;2.05;64.73
24486;BME280;13449;49.374;8.584;2023-01-29T12:58:41;101711.00;;;2.13;65.38
24486;BME280;13449;49.374;8.584;2023-01-29T13:01:16;101710.00;;;2.14;65.61
24486;BME280;13449;49.374;8.584;2023-01-29T13:04:02;101687.69;;;2.26;66.50
24486;BME280;13449;49.374;8.584;2023-01-29T13:06:52;101672.66;;;2.36;67.08
24486;BME280;13449;49.374;8.584;2023-01-29T13:09:26;101692.97;;;2.40;65.78
24486;BME280;13449;49.374;8.584;2023-01-29T13:12:06;101682.44;;;2.37;67.02
24486;BME280;13449;49.374;8.584;2023-01-29T13:17:17;101694.31;;;2.08;65.45
24486;BME280;13449;49.374;8.584;2023-01-29T13:19:49;101687.19;;;2.07;65.82
24486;BME280;13449;49.374;8.584;2023-01-29T13:22:28;101663.31;;;2.15;67.14
24486;BME280;13449;49.374;8.584;2023-01-29T13:24:57;101663.59;;;1.98;66.66
24486;BME280;13449;49.374;8.584;2023-01-29T13:27:32;101659.75;;;2.02;67.10
24486;BME280;13449;49.374;8.584;2023-01-29T13:30:22;101634.81;;;2.12;68.04
24486;BME280;13449;49.374;8.584;2023-01-29T13:32:50;101648.25;;;2.12;67.06
24486;BME280;13449;49.374;8.584;2023-01-29T13:35:20;101653.94;;;2.08;66.94
24486;BME280;13449;49.374;8.584;2023-01-29T13:37:48;101632.56;;;2.06;68.13
24486;BME280;13449;49.374;8.584;2023-01-29T13:40:31;101655.19;;;1.89;65.98
24486;BME280;13449;49.374;8.584;2023-01-29T13:43:04;101639.13;;;1.88;67.71
24486;BME280;13449;49.374;8.584;2023-01-29T13:45:35;101620.16;;;2.04;67.99
24486;BME280;13449;49.374;8.584;2023-01-29T13:48:30;101626.84;;;2.11;68.27
24486;BME280;13449;49.374;8.584;2023-01-29T13:51:02;101618.91;;;2.22;68.75
24486;BME280;13449;49.374;8.584;2023-01-29T13:53:34;101643.31;;;2.19;67.02
24486;BME280;13449;49.374;8.584;2023-01-29T13:58:55;101650.44;;;2.20;66.36
24486;BME280;13449;49.374;8.584;2023-01-29T14:06:50;101609.13;;;2.21;67.14
24486;BME280;13449;49.374;8.584;2023-01-29T14:09:28;101607.47;;;2.18;67.49
24486;BME280;13449;49.374;8.584;2023-01-29T14:11:56;101619.22;;;2.17;67.35
24486;BME280;13449;49.374;8.584;2023-01-29T14:17:15;101600.00;;;1.97;67.91
24486;BME280;13449;49.374;8.584;2023-01-29T14:19:48;101595.16;;;1.89;68.36
24486;BME280;13449;49.374;8.584;2023-01-29T14:22:26;101591.81;;;1.85;68.81
24486;BME280;13449;49.374;8.584;2023-01-29T14:24:56;101589.72;;;1.76;68.97
24486;BME280;13449;49.374;8.584;2023-01-29T14:27:24;101583.16;;;1.68;69.13
24486;BME280;13449;49.374;8.584;2023-01-29T14:29:58;101556.78;;;1.60;69.60
24486;BME280;13449;49.374;8.584;2023-01-29T14:32:26;101570.31;;;1.59;69.70
24486;BME280;13449;49.374;8.584;2023-01-29T14:35:00;101565.25;;;1.54;70.36
24486;BME280;13449;49.374;8.584;2023-01-29T14:37:32;101560.06;;;1.51;71.50
24486;BME280;13449;49.374;8.584;2023-01-29T14:55:41;101565.13;;;1.29;71.49
24486;BME280;13449;49.374;8.584;2023-01-29T14:58:32;101561.88;;;1.24;71.28
24486;BME280;13449;49.374;8.584;2023-01-29T15:01:03;101571.13;;;1.20;71.23
24486;BME280;13449;49.374;8.584;2023-01-29T15:04:01;101566.44;;;1.09;72.22
24486;BME280;13449;49.374;8.584;2023-01-29T15:06:31;101570.28;;;1.05;72.00
24486;BME280;13449;49.374;8.584;2023-01-29T15:09:05;101560.13;;;0.96;72.74
24486;BME280;13449;49.374;8.584;2023-01-29T15:11:46;101563.31;;;0.88;72.32
24486;BME280;13449;49.374;8.584;2023-01-29T15:15:13;101561.13;;;0.81;73.11
24486;BME280;13449;49.374;8.584;2023-01-29T15:17:22;101551.16;;;0.69;73.38
24486;BME280;13449;49.374;8.584;2023-01-29T15:19:52;101552.97;;;0.68;73.00
24486;BME280;13449;49.374;8.584;2023-01-29T15:22:20;101545.50;;;0.59;73.86
24486;BME280;13449;49.374;8.584;2023-01-29T15:25:03;101550.78;;;0.75;73.44
24486;BME280;13449;49.374;8.584;2023-01-29T15:27:30;101549.72;;;0.63;73.96
24486;BME280;13449;49.374;8.584;2023-01-29T15:30:03;101547.53;;;0.56;74.74
24486;BME280;13449;49.374;8.584;2023-01-29T15:32:40;101546.94;;;0.51;74.54
24486;BME280;13449;49.374;8.584;2023-01-29T15:35:33;101549.91;;;0.46;74.61
24486;BME280;13449;49.374;8.584;2023-01-29T15:38:06;101544.72;;;0.43;75.13
24486;BME280;13449;49.374;8.584;2023-01-29T15:40:39;101554.97;;;0.36;75.05